sensor_id;sensor_type;location;lat;lon;timestamp;P1;durP1;ratioP1;P2;durP2;ratioP2
74650;SDS011;63169;46.042;14.592;2023-11-21T00:01:15;28.95;;;16.27;;
74650;SDS011;63169;46.042;14.592;2023-11-21T00:03:40;32.20;;;18.42;;
74650;SDS011;63169;46.042;14.592;2023-11-21T00:06:06;33.30;;;20.83;;
74650;SDS011;63169;46.042;14.592;2023-11-21T00:08:34;27.02;;;15.85;;
74650;SDS011;63169;46.042;14.592;2023-11-21T00:11:00;27.45;;;20.67;;
74650;SDS011;63169;46.042;14.592;2023-11-21T00:13:26;32.85;;;16.70;;
74650;SDS011;63169;46.042;14.592;2023-11-21T00:15:52;31.30;;;21.02;;
74650;SDS011;63169;46.042;14.592;2023-11-21T00:18:17;34.92;;;19.83;;
74650;SDS011;63169;46.042;14.592;2023-11-21T00:20:43;32.65;;;20.75;;
74650;SDS011;63169;46.042;14.592;2023-11-21T00:23:08;27.73;;;15.15;;
74650;SDS011;63169;46.042;14.592;2023-11-21T00:25:34;32.47;;;16.20;;
74650;SDS011;63169;46.042;14.592;2023-11-21T00:28:00;31.00;;;16.25;;
74650;SDS011;63169;46.042;14.592;2023-11-21T00:30:30;29.70;;;17.33;;
74650;SDS011;63169;46.042;14.592;2023-11-21T00:32:56;27.17;;;20.08;;
74650;SDS011;63169;46.042;14.592;2023-11-21T00:35:21;29.38;;;20.92;;
74650;SDS011;63169;46.042;14.592;2023-11-21T00:37:46;28.20;;;17.90;;
74650;SDS011;63169;46.042;14.592;2023-11-21T00:40:14;28.23;;;18.60;;
74650;SDS011;63169;46.042;14.592;2023-11-21T00:42:40;28.17;;;19.10;;
74650;SDS011;63169;46.042;14.592;2023-11-21T00:45:06;25.40;;;15.30;;
74650;SDS011;63169;46.042;14.592;2023-11-21T00:47:32;31.20;;;20.15;;
74650;SDS011;63169;46.042;14.592;2023-11-21T00:49:58;26.27;;;15.15;;
74650;SDS011;63169;46.042;14.592;2023-11-21T00:52:23;30.67;;;17.38;;
74650;SDS011;63169;46.042;14.592;2023-11-21T00:54:48;33.80;;;17.83;;
74650;SDS011;63169;46.042;14.592;2023-11-21T00:57:14;29.33;;;20.60;;
74650;SDS011;63169;46.042;14.592;2023-11-21T00:59:40;29.48;;;21.25;;
74650;SDS011;63169;46.042;14.592;2023-11-21T01:02:05;28.17;;;21.95;;
74650;SDS011;63169;46.042;14.592;2023-11-21T01:04:30;28.83;;;16.35;;
74650;SDS011;63169;46.042;14.592;2023-11-21T01:06:57;29.80;;;19.58;;
74650;SDS011;63169;46.042;14.592;2023-11-21T01:09:22;29.83;;;22.30;;
74650;SDS011;63169;46.042;14.592;2023-11-21T01:11:49;29.40;;;16.92;;
74650;SDS011;63169;46.042;14.592;2023-11-21T01:14:14;32.97;;;21.58;;
74650;SDS011;63169;46.042;14.592;2023-11-21T01:16:40;37.03;;;20.85;;
74650;SDS011;63169;46.042;14.592;2023-11-21T01:19:05;32.33;;;20.45;;
74650;SDS011;63169;46.042;14.592;2023-11-21T01:21:31;31.10;;;17.17;;
74650;SDS011;63169;46.042;14.592;2023-11-21T01:23:56;34.95;;;18.08;;
74650;SDS011;63169;46.042;14.592;2023-11-21T01:26:22;31.77;;;20.67;;
74650;SDS011;63169;46.042;14.592;2023-11-21T01:28:47;26.17;;;19.98;;
74650;SDS011;63169;46.042;14.592;2023-11-21T01:31:16;30.90;;;15.88;;
74650;SDS011;63169;46.042;14.592;2023-11-21T01:33:41;32.38;;;17.88;;
74650;SDS011;63169;46.042;14.592;2023-11-21T01:36:07;27.70;;;16.67;;
74650;SDS011;63169;46.042;14.592;2023-11-21T01:38:32;29.15;;;20.00;;
74650;SDS011;63169;46.042;14.592;2023-11-21T01:40:58;30.27;;;21.02;;
74650;SDS011;63169;46.042;14.592;2023-11-21T01:43:25;29.98;;;20.30;;
74650;SDS011;63169;46.042;14.592;2023-11-21T01:45:51;27.92;;;19.27;;
74650;SDS011;63169;46.042;14.592;2023-11-21T01:48:17;34.53;;;21.42;;
74650;SDS011;63169;46.042;14.592;2023-11-21T01:50:43;32.50;;;17.90;;
74650;SDS011;63169;46.042;14.592;2023-11-21T01:53:08;33.42;;;21.40;;
74650;SDS011;63169;46.042;14.592;2023-11-21T01:55:35;28.77;;;20.52;;
74650;SDS011;63169;46.042;14.592;2023-11-21T01:58:01;29.25;;;20.65;;
74650;SDS011;63169;46.042;14.592;2023-11-21T02:00:26;26.45;;;17.88;;
74650;SDS011;63169;46.042;14.592;2023-11-21T02:02:54;29.52;;;21.02;;
74650;SDS011;63169;46.042;14.592;2023-11-21T02:05:19;27.67;;;19.55;;
74650;SDS011;63169;46.042;14.592;2023-11-21T02:07:46;30.42;;;16.38;;
74650;SDS011;63169;46.042;14.592;2023-11-21T02:10:17;32.22;;;20.83;;
74650;SDS011;63169;46.042;14.592;2023-11-21T02:12:47;25.08;;;15.88;;
74650;SDS011;63169;46.042;14.592;2023-11-21T02:15:16;25.65;;;17.48;;
74650;SDS011;63169;46.042;14.592;2023-11-21T02:17:48;28.88;;;20.75;;
74650;SDS011;63169;46.042;14.592;2023-11-21T02:20:19;33.10;;;19.13;;
74650;SDS011;63169;46.042;14.592;2023-11-21T02:25:26;29.40;;;19.27;;
74650;SDS011;63169;46.042;14.592;2023-11-21T02:27:55;27.23;;;19.00;;
74650;SDS011;63169;46.042;14.592;2023-11-21T02:30:21;30.77;;;21.60;;
74650;SDS011;63169;46.042;14.592;2023-11-21T02:32:48;26.15;;;18.48;;
74650;SDS011;63169;46.042;14.592;2023-11-21T02:35:13;27.95;;;19.67;;
74650;SDS011;63169;46.042;14.592;2023-11-21T02:37:40;25.85;;;16.98;;
74650;SDS011;63169;46.042;14.592;2023-11-21T02:40:08;27.40;;;16.88;;
74650;SDS011;63169;46.042;14.592;2023-11-21T02:42:35;23.88;;;13.50;;
74650;SDS011;63169;46.042;14.592;2023-11-21T02:45:00;23.95;;;16.00;;
74650;SDS011;63169;46.042;14.592;2023-11-21T02:47:26;21.90;;;12.85;;
74650;SDS011;63169;46.042;14.592;2023-11-21T02:49:51;21.27;;;16.20;;
74650;SDS011;63169;46.042;14.592;2023-11-21T02:52:17;20.80;;;12.18;;
74650;SDS011;63169;46.042;14.592;2023-11-21T02:54:44;23.13;;;14.88;;
74650;SDS011;63169;46.042;14.592;2023-11-21T02:57:09;22.55;;;14.50;;
74650;SDS011;63169;46.042;14.592;2023-11-21T02:59:35;20.92;;;14.25;;
74650;SDS011;63169;46.042;14.592;2023-11-21T03:02:00;23.52;;;15.60;;
74650;SDS011;63169;46.042;14.592;2023-11-21T03:04:26;19.80;;;14.45;;
74650;SDS011;63169;46.042;14.592;2023-11-21T03:06:51;19.17;;;14.48;;
74650;SDS011;63169;46.042;14.592;2023-11-21T03:09:17;21.77;;;11.80;;
74650;SDS011;63169;46.042;14.592;2023-11-21T03:11:42;17.88;;;10.80;;
74650;SDS011;63169;46.042;14.592;2023-11-21T03:14:07;16.77;;;10.68;;
74650;SDS011;63169;46.042;14.592;2023-11-21T03:16:33;20.88;;;13.15;;
74650;SDS011;63169;46.042;14.592;2023-11-21T03:18:58;17.08;;;13.32;;
74650;SDS011;63169;46.042;14.592;2023-11-21T03:21:24;19.70;;;15.90;;
74650;SDS011;63169;46.042;14.592;2023-11-21T03:23:51;20.70;;;13.65;;
74650;SDS011;63169;46.042;14.592;2023-11-21T03:26:17;22.65;;;13.63;;
74650;SDS011;63169;46.042;14.592;2023-11-21T03:28:42;19.75;;;14.48;;
74650;SDS011;63169;46.042;14.592;2023-11-21T03:31:11;18.88;;;12.85;;
74650;SDS011;63169;46.042;14.592;2023-11-21T03:33:36;18.00;;;13.20;;
74650;SDS011;63169;46.042;14.592;2023-11-21T03:36:02;19.08;;;10.98;;
74650;SDS011;63169;46.042;14.592;2023-11-21T03:38:28;19.38;;;15.73;;
74650;SDS011;63169;46.042;14.592;2023-11-21T03:40:54;18.15;;;13.63;;
74650;SDS011;63169;46.042;14.592;2023-11-21T03:43:19;29.60;;;16.35;;
74650;SDS011;63169;46.042;14.592;2023-11-21T03:45:45;24.10;;;16.17;;
74650;SDS011;63169;46.042;14.592;2023-11-21T03:48:11;23.42;;;13.77;;
74650;SDS011;63169;46.042;14.592;2023-11-21T03:50:37;17.85;;;11.15;;
74650;SDS011;63169;46.042;14.592;2023-11-21T03:53:03;20.88;;;11.15;;
74650;SDS011;63169;46.042;14.592;2023-11-21T03:55:29;22.17;;;15.05;;
74650;SDS011;63169;46.042;14.592;2023-11-21T03:57:56;18.55;;;12.75;;
74650;SDS011;63169;46.042;14.592;2023-11-21T04:00:22;24.10;;;12.90;;
74650;SDS011;63169;46.042;14.592;2023-11-21T04:02:48;25.13;;;16.95;;
74650;SDS011;63169;46.042;14.592;2023-11-21T04:05:13;19.13;;;16.98;;
74650;SDS011;63169;46.042;14.592;2023-11-21T04:07:39;27.30;;;17.85;;
74650;SDS011;63169;46.042;14.592;2023-11-21T04:10:05;23.90;;;16.48;;
74650;SDS011;63169;46.042;14.592;2023-11-21T04:12:33;24.33;;;14.35;;
74650;SDS011;63169;46.042;14.592;2023-11-21T04:14:59;25.33;;;18.42;;
74650;SDS011;63169;46.042;14.592;2023-11-21T04:17:25;30.75;;;18.55;;
74650;SDS011;63169;46.042;14.592;2023-11-21T04:19:50;22.05;;;18.05;;
74650;SDS011;63169;46.042;14.592;2023-11-21T04:22:16;20.63;;;16.40;;
74650;SDS011;63169;46.042;14.592;2023-11-21T04:24:41;23.20;;;12.80;;
74650;SDS011;63169;46.042;14.592;2023-11-21T04:27:06;25.25;;;17.80;;
74650;SDS011;63169;46.042;14.592;2023-11-21T04:29:32;31.88;;;19.58;;
74650;SDS011;63169;46.042;14.592;2023-11-21T04:31:58;27.48;;;18.10;;
74650;SDS011;63169;46.042;14.592;2023-11-21T04:34:23;23.27;;;15.07;;
74650;SDS011;63169;46.042;14.592;2023-11-21T04:36:49;26.50;;;18.80;;
74650;SDS011;63169;46.042;14.592;2023-11-21T04:39:15;22.00;;;15.55;;
74650;SDS011;63169;46.042;14.592;2023-11-21T04:41:40;26.67;;;17.00;;
74650;SDS011;63169;46.042;14.592;2023-11-21T04:44:06;25.58;;;17.75;;
74650;SDS011;63169;46.042;14.592;2023-11-21T04:46:31;23.60;;;16.42;;
74650;SDS011;63169;46.042;14.592;2023-11-21T04:48:57;23.52;;;16.80;;
74650;SDS011;63169;46.042;14.592;2023-11-21T04:51:23;25.85;;;15.02;;
74650;SDS011;63169;46.042;14.592;2023-11-21T04:53:49;23.85;;;13.57;;
74650;SDS011;63169;46.042;14.592;2023-11-21T04:56:14;27.20;;;18.20;;
74650;SDS011;63169;46.042;14.592;2023-11-21T04:58:41;23.95;;;17.83;;
74650;SDS011;63169;46.042;14.592;2023-11-21T05:01:09;23.08;;;13.02;;
74650;SDS011;63169;46.042;14.592;2023-11-21T05:03:35;27.20;;;14.32;;
74650;SDS011;63169;46.042;14.592;2023-11-21T05:06:00;24.00;;;12.85;;
74650;SDS011;63169;46.042;14.592;2023-11-21T05:08:25;47.83;;;25.52;;
74650;SDS011;63169;46.042;14.592;2023-11-21T05:10:51;35.85;;;18.58;;
74650;SDS011;63169;46.042;14.592;2023-11-21T05:13:18;29.23;;;20.55;;
74650;SDS011;63169;46.042;14.592;2023-11-21T05:15:45;25.85;;;17.35;;
74650;SDS011;63169;46.042;14.592;2023-11-21T05:18:10;24.60;;;15.13;;
74650;SDS011;63169;46.042;14.592;2023-11-21T05:20:36;25.42;;;17.42;;
74650;SDS011;63169;46.042;14.592;2023-11-21T05:23:02;27.40;;;17.58;;
74650;SDS011;63169;46.042;14.592;2023-11-21T05:25:27;21.67;;;17.00;;
74650;SDS011;63169;46.042;14.592;2023-11-21T05:27:53;23.98;;;13.85;;
74650;SDS011;63169;46.042;14.592;2023-11-21T05:30:20;20.25;;;15.82;;
74650;SDS011;63169;46.042;14.592;2023-11-21T05:32:46;21.88;;;14.43;;
74650;SDS011;63169;46.042;14.592;2023-11-21T05:35:11;22.10;;;15.77;;
74650;SDS011;63169;46.042;14.592;2023-11-21T05:37:40;22.80;;;17.00;;
74650;SDS011;63169;46.042;14.592;2023-11-21T05:40:07;24.05;;;13.48;;
74650;SDS011;63169;46.042;14.592;2023-11-21T05:42:33;26.52;;;18.88;;
74650;SDS011;63169;46.042;14.592;2023-11-21T05:45:04;26.55;;;14.38;;
74650;SDS011;63169;46.042;14.592;2023-11-21T05:47:38;24.73;;;16.20;;
74650;SDS011;63169;46.042;14.592;2023-11-21T05:50:10;23.70;;;12.85;;
74650;SDS011;63169;46.042;14.592;2023-11-21T05:52:46;24.23;;;17.73;;
74650;SDS011;63169;46.042;14.592;2023-11-21T05:55:12;23.52;;;13.27;;
74650;SDS011;63169;46.042;14.592;2023-11-21T05:57:38;24.25;;;15.88;;
74650;SDS011;63169;46.042;14.592;2023-11-21T06:02:51;20.10;;;14.00;;
74650;SDS011;63169;46.042;14.592;2023-11-21T06:05:18;19.05;;;12.18;;
74650;SDS011;63169;46.042;14.592;2023-11-21T06:07:44;23.63;;;17.00;;
74650;SDS011;63169;46.042;14.592;2023-11-21T06:10:10;22.20;;;14.13;;
74650;SDS011;63169;46.042;14.592;2023-11-21T06:12:39;23.95;;;13.55;;
74650;SDS011;63169;46.042;14.592;2023-11-21T06:15:05;18.63;;;14.98;;
74650;SDS011;63169;46.042;14.592;2023-11-21T06:17:33;26.98;;;18.17;;
74650;SDS011;63169;46.042;14.592;2023-11-21T06:20:05;22.67;;;13.18;;
74650;SDS011;63169;46.042;14.592;2023-11-21T06:22:36;23.27;;;12.90;;
74650;SDS011;63169;46.042;14.592;2023-11-21T06:25:02;23.65;;;16.60;;
74650;SDS011;63169;46.042;14.592;2023-11-21T06:27:33;23.83;;;17.08;;
74650;SDS011;63169;46.042;14.592;2023-11-21T06:29:59;23.45;;;15.93;;
74650;SDS011;63169;46.042;14.592;2023-11-21T06:32:25;22.52;;;12.75;;
74650;SDS011;63169;46.042;14.592;2023-11-21T06:34:51;22.65;;;14.93;;
74650;SDS011;63169;46.042;14.592;2023-11-21T06:37:19;23.73;;;13.70;;
74650;SDS011;63169;46.042;14.592;2023-11-21T06:39:48;24.42;;;15.80;;
74650;SDS011;63169;46.042;14.592;2023-11-21T06:42:19;24.20;;;17.77;;
74650;SDS011;63169;46.042;14.592;2023-11-21T06:44:45;25.38;;;17.58;;
74650;SDS011;63169;46.042;14.592;2023-11-21T06:47:11;37.28;;;20.15;;
74650;SDS011;63169;46.042;14.592;2023-11-21T06:49:37;31.88;;;19.90;;
74650;SDS011;63169;46.042;14.592;2023-11-21T06:52:03;43.80;;;20.15;;
74650;SDS011;63169;46.042;14.592;2023-11-21T06:54:30;34.45;;;17.60;;
74650;SDS011;63169;46.042;14.592;2023-11-21T06:56:56;28.52;;;17.80;;
74650;SDS011;63169;46.042;14.592;2023-11-21T06:59:22;23.65;;;16.83;;
74650;SDS011;63169;46.042;14.592;2023-11-21T07:01:48;23.67;;;18.70;;
74650;SDS011;63169;46.042;14.592;2023-11-21T07:04:14;25.27;;;17.70;;
74650;SDS011;63169;46.042;14.592;2023-11-21T07:06:40;25.38;;;16.10;;
74650;SDS011;63169;46.042;14.592;2023-11-21T07:09:05;28.42;;;18.30;;
74650;SDS011;63169;46.042;14.592;2023-11-21T07:11:33;24.42;;;16.52;;
74650;SDS011;63169;46.042;14.592;2023-11-21T07:13:59;23.92;;;12.77;;
74650;SDS011;63169;46.042;14.592;2023-11-21T07:16:27;23.48;;;13.75;;
74650;SDS011;63169;46.042;14.592;2023-11-21T07:18:53;39.35;;;22.50;;
74650;SDS011;63169;46.042;14.592;2023-11-21T07:21:20;33.90;;;17.55;;
74650;SDS011;63169;46.042;14.592;2023-11-21T07:23:45;24.95;;;19.52;;
74650;SDS011;63169;46.042;14.592;2023-11-21T07:26:11;25.73;;;18.92;;
74650;SDS011;63169;46.042;14.592;2023-11-21T07:28:37;24.23;;;13.95;;
74650;SDS011;63169;46.042;14.592;2023-11-21T07:31:02;27.92;;;19.63;;
74650;SDS011;63169;46.042;14.592;2023-11-21T07:33:28;24.17;;;18.58;;
74650;SDS011;63169;46.042;14.592;2023-11-21T07:35:54;24.35;;;19.15;;
74650;SDS011;63169;46.042;14.592;2023-11-21T07:38:19;26.58;;;20.50;;
74650;SDS011;63169;46.042;14.592;2023-11-21T07:40:44;30.38;;;20.35;;
74650;SDS011;63169;46.042;14.592;2023-11-21T07:43:10;25.27;;;19.20;;
74650;SDS011;63169;46.042;14.592;2023-11-21T07:45:35;26.23;;;22.10;;
74650;SDS011;63169;46.042;14.592;2023-11-21T07:48:01;26.90;;;19.15;;
74650;SDS011;63169;46.042;14.592;2023-11-21T07:50:28;28.83;;;16.58;;
74650;SDS011;63169;46.042;14.592;2023-11-21T07:52:54;31.50;;;21.67;;
74650;SDS011;63169;46.042;14.592;2023-11-21T07:55:20;29.88;;;15.82;;
74650;SDS011;63169;46.042;14.592;2023-11-21T07:57:45;31.33;;;22.42;;
74650;SDS011;63169;46.042;14.592;2023-11-21T08:00:11;26.45;;;19.98;;
74650;SDS011;63169;46.042;14.592;2023-11-21T08:02:37;26.70;;;18.88;;
74650;SDS011;63169;46.042;14.592;2023-11-21T08:05:04;26.10;;;17.85;;
74650;SDS011;63169;46.042;14.592;2023-11-21T08:07:32;25.10;;;13.73;;
74650;SDS011;63169;46.042;14.592;2023-11-21T08:09:58;28.65;;;20.33;;
74650;SDS011;63169;46.042;14.592;2023-11-21T08:12:23;29.50;;;22.73;;
74650;SDS011;63169;46.042;14.592;2023-11-21T08:14:49;28.23;;;16.10;;
74650;SDS011;63169;46.042;14.592;2023-11-21T08:17:14;25.40;;;14.75;;
74650;SDS011;63169;46.042;14.592;2023-11-21T08:19:40;27.90;;;18.38;;
74650;SDS011;63169;46.042;14.592;2023-11-21T08:22:06;21.20;;;17.25;;
74650;SDS011;63169;46.042;14.592;2023-11-21T08:26:58;24.25;;;18.25;;
74650;SDS011;63169;46.042;14.592;2023-11-21T08:29:23;20.98;;;13.18;;
74650;SDS011;63169;46.042;14.592;2023-11-21T08:31:49;24.92;;;17.58;;
74650;SDS011;63169;46.042;14.592;2023-11-21T08:34:14;24.10;;;17.05;;
74650;SDS011;63169;46.042;14.592;2023-11-21T08:36:43;29.30;;;20.98;;
74650;SDS011;63169;46.042;14.592;2023-11-21T08:39:08;24.85;;;15.90;;
74650;SDS011;63169;46.042;14.592;2023-11-21T08:41:35;33.63;;;17.33;;
74650;SDS011;63169;46.042;14.592;2023-11-21T08:44:01;25.67;;;15.55;;
74650;SDS011;63169;46.042;14.592;2023-11-21T08:46:27;30.27;;;20.42;;
74650;SDS011;63169;46.042;14.592;2023-11-21T08:48:52;29.65;;;20.80;;
74650;SDS011;63169;46.042;14.592;2023-11-21T08:51:18;29.98;;;19.92;;
74650;SDS011;63169;46.042;14.592;2023-11-21T08:53:43;28.27;;;20.08;;
74650;SDS011;63169;46.042;14.592;2023-11-21T08:56:12;28.75;;;21.80;;
74650;SDS011;63169;46.042;14.592;2023-11-21T08:58:39;27.52;;;18.83;;
74650;SDS011;63169;46.042;14.592;2023-11-21T09:01:04;24.58;;;19.25;;
74650;SDS011;63169;46.042;14.592;2023-11-21T09:03:32;25.60;;;15.77;;
74650;SDS011;63169;46.042;14.592;2023-11-21T09:05:59;25.60;;;15.02;;
74650;SDS011;63169;46.042;14.592;2023-11-21T09:08:25;28.48;;;16.17;;
74650;SDS011;63169;46.042;14.592;2023-11-21T09:10:50;29.13;;;22.08;;
74650;SDS011;63169;46.042;14.592;2023-11-21T09:13:17;28.08;;;19.27;;
74650;SDS011;63169;46.042;14.592;2023-11-21T09:15:43;28.85;;;19.33;;
74650;SDS011;63169;46.042;14.592;2023-11-21T09:18:12;32.83;;;20.17;;
74650;SDS011;63169;46.042;14.592;2023-11-21T09:20:38;27.85;;;19.58;;
74650;SDS011;63169;46.042;14.592;2023-11-21T09:23:03;27.70;;;20.70;;
74650;SDS011;63169;46.042;14.592;2023-11-21T09:25:29;30.90;;;17.35;;
74650;SDS011;63169;46.042;14.592;2023-11-21T09:27:54;33.78;;;21.48;;
74650;SDS011;63169;46.042;14.592;2023-11-21T09:32:46;24.95;;;16.25;;
74650;SDS011;63169;46.042;14.592;2023-11-21T09:35:12;28.75;;;20.50;;
74650;SDS011;63169;46.042;14.592;2023-11-21T09:37:39;28.80;;;19.75;;
74650;SDS011;63169;46.042;14.592;2023-11-21T09:40:04;28.58;;;16.10;;
74650;SDS011;63169;46.042;14.592;2023-11-21T09:45:18;24.85;;;17.25;;
74650;SDS011;63169;46.042;14.592;2023-11-21T09:47:50;28.70;;;19.52;;
74650;SDS011;63169;46.042;14.592;2023-11-21T09:50:18;30.80;;;17.05;;
74650;SDS011;63169;46.042;14.592;2023-11-21T09:55:16;30.08;;;22.15;;
74650;SDS011;63169;46.042;14.592;2023-11-21T09:57:43;29.63;;;18.00;;
74650;SDS011;63169;46.042;14.592;2023-11-21T10:00:10;31.50;;;21.88;;
74650;SDS011;63169;46.042;14.592;2023-11-21T10:02:37;28.25;;;16.70;;
74650;SDS011;63169;46.042;14.592;2023-11-21T10:05:03;26.23;;;16.40;;
74650;SDS011;63169;46.042;14.592;2023-11-21T10:07:29;32.15;;;22.55;;
74650;SDS011;63169;46.042;14.592;2023-11-21T10:09:57;24.38;;;20.35;;
74650;SDS011;63169;46.042;14.592;2023-11-21T10:12:23;32.97;;;23.50;;
74650;SDS011;63169;46.042;14.592;2023-11-21T10:14:49;32.47;;;22.38;;
74650;SDS011;63169;46.042;14.592;2023-11-21T10:17:17;31.90;;;20.67;;
74650;SDS011;63169;46.042;14.592;2023-11-21T10:19:46;24.70;;;19.05;;
74650;SDS011;63169;46.042;14.592;2023-11-21T10:22:12;23.08;;;15.93;;
74650;SDS011;63169;46.042;14.592;2023-11-21T10:24:40;23.02;;;19.08;;
74650;SDS011;63169;46.042;14.592;2023-11-21T10:27:05;28.77;;;21.67;;
74650;SDS011;63169;46.042;14.592;2023-11-21T10:29:30;25.40;;;18.88;;
74650;SDS011;63169;46.042;14.592;2023-11-21T10:32:01;23.67;;;14.70;;
74650;SDS011;63169;46.042;14.592;2023-11-21T10:34:27;28.52;;;22.65;;
74650;SDS011;63169;46.042;14.592;2023-11-21T10:36:52;31.20;;;20.77;;
74650;SDS011;63169;46.042;14.592;2023-11-21T10:39:18;30.65;;;21.38;;
74650;SDS011;63169;46.042;14.592;2023-11-21T10:41:45;27.42;;;16.23;;
74650;SDS011;63169;46.042;14.592;2023-11-21T10:44:13;32.63;;;20.98;;
74650;SDS011;63169;46.042;14.592;2023-11-21T10:46:45;27.38;;;18.83;;
74650;SDS011;63169;46.042;14.592;2023-11-21T10:49:15;26.83;;;17.00;;
74650;SDS011;63169;46.042;14.592;2023-11-21T10:51:44;25.35;;;14.15;;
74650;SDS011;63169;46.042;14.592;2023-11-21T10:54:09;26.45;;;17.75;;
74650;SDS011;63169;46.042;14.592;2023-11-21T10:56:35;28.15;;;18.27;;
74650;SDS011;63169;46.042;14.592;2023-11-21T10:59:06;28.00;;;18.92;;
74650;SDS011;63169;46.042;14.592;2023-11-21T11:01:33;26.58;;;19.08;;
74650;SDS011;63169;46.042;14.592;2023-11-21T11:03:59;28.58;;;18.55;;
74650;SDS011;63169;46.042;14.592;2023-11-21T11:06:25;37.50;;;21.30;;
74650;SDS011;63169;46.042;14.592;2023-11-21T11:08:52;28.40;;;19.52;;
74650;SDS011;63169;46.042;14.592;2023-11-21T11:11:18;27.08;;;16.30;;
74650;SDS011;63169;46.042;14.592;2023-11-21T11:13:43;32.35;;;16.67;;
74650;SDS011;63169;46.042;14.592;2023-11-21T11:16:12;28.88;;;19.95;;
74650;SDS011;63169;46.042;14.592;2023-11-21T11:18:43;33.72;;;22.02;;
74650;SDS011;63169;46.042;14.592;2023-11-21T11:21:23;30.80;;;20.55;;
74650;SDS011;63169;46.042;14.592;2023-11-21T11:26:37;29.80;;;18.50;;
74650;SDS011;63169;46.042;14.592;2023-11-21T11:29:27;25.15;;;18.42;;
74650;SDS011;63169;46.042;14.592;2023-11-21T11:34:52;26.67;;;18.83;;
74650;SDS011;63169;46.042;14.592;2023-11-21T11:37:21;24.95;;;18.58;;
74650;SDS011;63169;46.042;14.592;2023-11-21T11:39:48;24.70;;;17.90;;
74650;SDS011;63169;46.042;14.592;2023-11-21T11:42:15;27.35;;;17.70;;
74650;SDS011;63169;46.042;14.592;2023-11-21T11:47:16;24.98;;;18.08;;
74650;SDS011;63169;46.042;14.592;2023-11-21T11:49:56;28.65;;;14.90;;
74650;SDS011;63169;46.042;14.592;2023-11-21T11:52:34;26.00;;;19.55;;
74650;SDS011;63169;46.042;14.592;2023-11-21T11:55:02;28.73;;;17.95;;
74650;SDS011;63169;46.042;14.592;2023-11-21T11:57:32;26.77;;;20.10;;
74650;SDS011;63169;46.042;14.592;2023-11-21T12:00:09;26.70;;;17.65;;
74650;SDS011;63169;46.042;14.592;2023-11-21T12:02:47;25.38;;;18.10;;
74650;SDS011;63169;46.042;14.592;2023-11-21T12:05:14;20.70;;;10.82;;
74650;SDS011;63169;46.042;14.592;2023-11-21T12:07:46;22.05;;;14.68;;
74650;SDS011;63169;46.042;14.592;2023-11-21T12:10:19;22.23;;;15.05;;
74650;SDS011;63169;46.042;14.592;2023-11-21T12:13:20;24.80;;;16.77;;
74650;SDS011;63169;46.042;14.592;2023-11-21T12:15:38;23.25;;;12.55;;
74650;SDS011;63169;46.042;14.592;2023-11-21T12:18:06;17.17;;;13.77;;
74650;SDS011;63169;46.042;14.592;2023-11-21T12:20:32;20.15;;;14.63;;
74650;SDS011;63169;46.042;14.592;2023-11-21T12:23:03;17.70;;;13.68;;
74650;SDS011;63169;46.042;14.592;2023-11-21T12:25:30;16.27;;;13.32;;
74650;SDS011;63169;46.042;14.592;2023-11-21T12:27:57;13.48;;;10.68;;
74650;SDS011;63169;46.042;14.592;2023-11-21T12:30:23;15.00;;;10.60;;
74650;SDS011;63169;46.042;14.592;2023-11-21T12:32:52;15.50;;;12.30;;
74650;SDS011;63169;46.042;14.592;2023-11-21T12:35:39;10.15;;;8.52;;
74650;SDS011;63169;46.042;14.592;2023-11-21T12:38:04;9.02;;;6.63;;
74650;SDS011;63169;46.042;14.592;2023-11-21T12:40:30;8.63;;;6.15;;
74650;SDS011;63169;46.042;14.592;2023-11-21T12:42:56;8.50;;;7.55;;
74650;SDS011;63169;46.042;14.592;2023-11-21T12:50:32;6.80;;;6.10;;
74650;SDS011;63169;46.042;14.592;2023-11-21T12:53:01;6.43;;;5.57;;
74650;SDS011;63169;46.042;14.592;2023-11-21T12:55:31;6.78;;;5.88;;
74650;SDS011;63169;46.042;14.592;2023-11-21T12:57:58;5.55;;;4.97;;
74650;SDS011;63169;46.042;14.592;2023-11-21T13:00:34;6.93;;;5.43;;
74650;SDS011;63169;46.042;14.592;2023-11-21T13:03:02;8.05;;;5.15;;
74650;SDS011;63169;46.042;14.592;2023-11-21T13:05:32;6.65;;;5.28;;
74650;SDS011;63169;46.042;14.592;2023-11-21T13:08:00;7.10;;;5.55;;
74650;SDS011;63169;46.042;14.592;2023-11-21T13:10:32;6.85;;;5.47;;
74650;SDS011;63169;46.042;14.592;2023-11-21T13:13:01;5.43;;;3.83;;
74650;SDS011;63169;46.042;14.592;2023-11-21T13:15:30;6.63;;;5.57;;
74650;SDS011;63169;46.042;14.592;2023-11-21T13:17:57;8.50;;;4.90;;
74650;SDS011;63169;46.042;14.592;2023-11-21T13:20:23;9.88;;;7.97;;
74650;SDS011;63169;46.042;14.592;2023-11-21T13:22:53;6.68;;;3.42;;
74650;SDS011;63169;46.042;14.592;2023-11-21T13:25:22;7.70;;;4.10;;
74650;SDS011;63169;46.042;14.592;2023-11-21T13:27:48;5.40;;;2.08;;
74650;SDS011;63169;46.042;14.592;2023-11-21T13:30:14;7.88;;;4.22;;
74650;SDS011;63169;46.042;14.592;2023-11-21T13:32:41;8.63;;;6.25;;
74650;SDS011;63169;46.042;14.592;2023-11-21T13:35:07;5.78;;;5.20;;
74650;SDS011;63169;46.042;14.592;2023-11-21T13:37:37;5.35;;;4.85;;
74650;SDS011;63169;46.042;14.592;2023-11-21T13:40:02;8.73;;;6.05;;
74650;SDS011;63169;46.042;14.592;2023-11-21T13:42:35;8.52;;;7.03;;
74650;SDS011;63169;46.042;14.592;2023-11-21T13:45:00;6.18;;;5.57;;
74650;SDS011;63169;46.042;14.592;2023-11-21T13:47:25;5.53;;;3.35;;
74650;SDS011;63169;46.042;14.592;2023-11-21T13:49:54;7.15;;;5.18;;
74650;SDS011;63169;46.042;14.592;2023-11-21T13:52:20;4.13;;;1.80;;
74650;SDS011;63169;46.042;14.592;2023-11-21T13:54:48;5.18;;;4.10;;
74650;SDS011;63169;46.042;14.592;2023-11-21T13:57:14;5.78;;;5.20;;
74650;SDS011;63169;46.042;14.592;2023-11-21T13:59:39;5.78;;;5.28;;
74650;SDS011;63169;46.042;14.592;2023-11-21T14:02:04;4.72;;;4.20;;
74650;SDS011;63169;46.042;14.592;2023-11-21T14:04:53;6.55;;;4.38;;
74650;SDS011;63169;46.042;14.592;2023-11-21T14:07:21;6.30;;;5.80;;
74650;SDS011;63169;46.042;14.592;2023-11-21T14:09:51;7.47;;;5.90;;
74650;SDS011;63169;46.042;14.592;2023-11-21T14:12:17;5.93;;;5.35;;
74650;SDS011;63169;46.042;14.592;2023-11-21T14:14:43;9.40;;;7.10;;
74650;SDS011;63169;46.042;14.592;2023-11-21T14:17:10;7.28;;;5.60;;
74650;SDS011;63169;46.042;14.592;2023-11-21T14:19:35;7.13;;;6.38;;
74650;SDS011;63169;46.042;14.592;2023-11-21T14:22:05;8.35;;;6.78;;
74650;SDS011;63169;46.042;14.592;2023-11-21T14:24:32;9.00;;;5.47;;
74650;SDS011;63169;46.042;14.592;2023-11-21T14:26:58;7.45;;;5.28;;
74650;SDS011;63169;46.042;14.592;2023-11-21T14:29:24;8.32;;;6.07;;
74650;SDS011;63169;46.042;14.592;2023-11-21T14:31:50;7.05;;;6.28;;
74650;SDS011;63169;46.042;14.592;2023-11-21T14:34:16;13.90;;;9.07;;
74650;SDS011;63169;46.042;14.592;2023-11-21T14:36:42;12.45;;;9.40;;
74650;SDS011;63169;46.042;14.592;2023-11-21T14:39:09;12.82;;;6.03;;
74650;SDS011;63169;46.042;14.592;2023-11-21T14:41:45;12.05;;;8.95;;